sensor_id;sensor_type;location;lat;lon;timestamp;pressure;altitude;pressure_sealevel;temperature;humidity
57192;BME280;43052;52.588;13.396;2023-05-11T00:01:03;100957.03;;;11.73;76.10
57192;BME280;43052;52.588;13.396;2023-05-11T00:03:28;100985.78;;;11.84;76.26
57192;BME280;43052;52.588;13.396;2023-05-11T00:05:54;100979.72;;;11.79;76.40
57192;BME280;43052;52.588;13.396;2023-05-11T00:08:20;100978.81;;;11.78;76.22
57192;BME280;43052;52.588;13.396;2023-05-11T00:10:46;100953.56;;;11.69;76.43
57192;BME280;43052;52.588;13.396;2023-05-11T00:13:12;100956.19;;;11.71;76.45
57192;BME280;43052;52.588;13.396;2023-05-11T00:15:37;100952.66;;;11.73;76.47
57192;BME280;43052;52.588;13.396;2023-05-11T00:18:03;100964.00;;;11.79;76.78
57192;BME280;43052;52.588;13.396;2023-05-11T00:20:28;100968.31;;;11.84;76.60
57192;BME280;43052;52.588;13.396;2023-05-11T00:22:53;100966.59;;;11.80;76.59
57192;BME280;43052;52.588;13.396;2023-05-11T00:25:18;100968.34;;;11.81;76.59
57192;BME280;43052;52.588;13.396;2023-05-11T00:27:44;100963.97;;;11.77;76.84
57192;BME280;43052;52.588;13.396;2023-05-11T00:30:10;100965.78;;;11.72;76.67
57192;BME280;43052;52.588;13.396;2023-05-11T00:32:36;100963.16;;;11.69;76.87
57192;BME280;43052;52.588;13.396;2023-05-11T00:35:01;100962.34;;;11.64;76.95
57192;BME280;43052;52.588;13.396;2023-05-11T00:37:26;100967.59;;;11.59;77.29
57192;BME280;43052;52.588;13.396;2023-05-11T00:39:51;100961.53;;;11.54;77.26
57192;BME280;43052;52.588;13.396;2023-05-11T00:42:17;100938.06;;;11.40;77.25
57192;BME280;43052;52.588;13.396;2023-05-11T00:44:42;100949.41;;;11.39;77.63
57192;BME280;43052;52.588;13.396;2023-05-11T00:47:07;100947.69;;;11.30;77.49
57192;BME280;43052;52.588;13.396;2023-05-11T00:49:33;100969.50;;;11.35;77.56
57192;BME280;43052;52.588;13.396;2023-05-11T00:51:58;100969.50;;;11.29;77.67
57192;BME280;43052;52.588;13.396;2023-05-11T00:54:26;100952.16;;;11.14;77.52
57192;BME280;43052;52.588;13.396;2023-05-11T00:56:52;100965.22;;;11.20;77.34
57192;BME280;43052;52.588;13.396;2023-05-11T00:59:17;100966.91;;;11.24;78.00
57192;BME280;43052;52.588;13.396;2023-05-11T01:01:45;100962.56;;;11.22;78.28
57192;BME280;43052;52.588;13.396;2023-05-11T01:04:11;100966.97;;;11.21;78.32
57192;BME280;43052;52.588;13.396;2023-05-11T01:10:05;100966.13;;;11.10;78.29
57192;BME280;43052;52.588;13.396;2023-05-11T01:15:31;100966.16;;;10.97;78.26
57192;BME280;43052;52.588;13.396;2023-05-11T01:18:41;100968.84;;;10.93;78.56
57192;BME280;43052;52.588;13.396;2023-05-11T01:21:08;100970.56;;;10.88;78.28
57192;BME280;43052;52.588;13.396;2023-05-11T01:23:53;100974.94;;;10.84;78.48
57192;BME280;43052;52.588;13.396;2023-05-11T01:31:55;100972.38;;;10.70;78.27
57192;BME280;43052;52.588;13.396;2023-05-11T01:34:24;100976.72;;;10.68;78.24
57192;BME280;43052;52.588;13.396;2023-05-11T01:36:57;100980.22;;;10.62;78.68
57192;BME280;43052;52.588;13.396;2023-05-11T01:39:36;100988.97;;;10.61;78.96
57192;BME280;43052;52.588;13.396;2023-05-11T01:42:07;100985.50;;;10.58;78.32
57192;BME280;43052;52.588;13.396;2023-05-11T01:44:34;100986.34;;;10.54;78.61
57192;BME280;43052;52.588;13.396;2023-05-11T01:47:02;100981.16;;;10.47;78.82
57192;BME280;43052;52.588;13.396;2023-05-11T01:49:28;100995.09;;;10.51;78.66
57192;BME280;43052;52.588;13.396;2023-05-11T01:51:57;100988.09;;;10.50;79.02
57192;BME280;43052;52.588;13.396;2023-05-11T01:54:24;101002.91;;;10.60;80.30
57192;BME280;43052;52.588;13.396;2023-05-11T01:56:50;101000.25;;;10.68;80.74
57192;BME280;43052;52.588;13.396;2023-05-11T01:59:18;100986.31;;;10.72;81.79
57192;BME280;43052;52.588;13.396;2023-05-11T02:01:46;100989.78;;;10.76;81.94
57192;BME280;43052;52.588;13.396;2023-05-11T02:04:13;100986.31;;;10.75;81.76
57192;BME280;43052;52.588;13.396;2023-05-11T02:06:39;100984.56;;;10.73;81.73
57192;BME280;43052;52.588;13.396;2023-05-11T02:09:11;100991.56;;;10.68;81.63
57192;BME280;43052;52.588;13.396;2023-05-11T02:11:39;100997.66;;;10.71;82.38
57192;BME280;43052;52.588;13.396;2023-05-11T02:14:10;101001.13;;;10.72;82.13
57192;BME280;43052;52.588;13.396;2023-05-11T02:16:42;100999.41;;;10.71;82.40
57192;BME280;43052;52.588;13.396;2023-05-11T02:19:09;100988.09;;;10.61;82.42
57192;BME280;43052;52.588;13.396;2023-05-11T02:21:38;100995.94;;;10.59;82.73
57192;BME280;43052;52.588;13.396;2023-05-11T02:24:12;101001.16;;;10.64;82.92
57192;BME280;43052;52.588;13.396;2023-05-11T02:26:37;101015.97;;;10.70;82.90
57192;BME280;43052;52.588;13.396;2023-05-11T02:29:02;101009.88;;;10.60;82.89
57192;BME280;43052;52.588;13.396;2023-05-11T02:31:29;101009.00;;;10.56;82.53
57192;BME280;43052;52.588;13.396;2023-05-11T02:34:00;101020.34;;;10.57;82.99
57192;BME280;43052;52.588;13.396;2023-05-11T02:36:28;101016.88;;;10.58;83.52
57192;BME280;43052;52.588;13.396;2023-05-11T02:39:01;101019.50;;;10.58;83.83
57192;BME280;43052;52.588;13.396;2023-05-11T02:41:28;101024.69;;;10.56;83.90
57192;BME280;43052;52.588;13.396;2023-05-11T02:43:58;101023.84;;;10.51;84.08
57192;BME280;43052;52.588;13.396;2023-05-11T02:46:27;101021.22;;;10.51;84.58
57192;BME280;43052;52.588;13.396;2023-05-11T02:48:56;101021.22;;;10.49;84.55
57192;BME280;43052;52.588;13.396;2023-05-11T02:51:30;101022.09;;;10.47;84.75
57192;BME280;43052;52.588;13.396;2023-05-11T02:53:58;101011.63;;;10.42;84.52
57192;BME280;43052;52.588;13.396;2023-05-11T02:56:24;101009.03;;;10.38;84.69
57192;BME280;43052;52.588;13.396;2023-05-11T02:58:49;101014.25;;;10.38;84.39
57192;BME280;43052;52.588;13.396;2023-05-11T03:01:15;101021.19;;;10.34;84.67
57192;BME280;43052;52.588;13.396;2023-05-11T03:03:41;101017.72;;;10.30;84.58
57192;BME280;43052;52.588;13.396;2023-05-11T03:06:06;101028.19;;;10.30;84.54
57192;BME280;43052;52.588;13.396;2023-05-11T03:08:31;101024.69;;;10.28;84.32
57192;BME280;43052;52.588;13.396;2023-05-11T03:10:57;101024.69;;;10.28;84.23
57192;BME280;43052;52.588;13.396;2023-05-11T03:13:23;101024.69;;;10.28;83.64
57192;BME280;43052;52.588;13.396;2023-05-11T03:15:50;101022.94;;;10.26;83.51
57192;BME280;43052;52.588;13.396;2023-05-11T03:18:17;101019.47;;;10.17;83.32
57192;BME280;43052;52.588;13.396;2023-05-11T03:20:44;101022.94;;;10.15;82.99
57192;BME280;43052;52.588;13.396;2023-05-11T03:23:10;101022.94;;;10.12;83.11
57192;BME280;43052;52.588;13.396;2023-05-11T03:25:36;101021.22;;;10.17;83.64
57192;BME280;43052;52.588;13.396;2023-05-11T03:28:03;101022.94;;;10.21;83.51
57192;BME280;43052;52.588;13.396;2023-05-11T03:30:28;101016.84;;;10.21;83.68
57192;BME280;43052;52.588;13.396;2023-05-11T03:32:54;101017.72;;;10.19;83.57
57192;BME280;43052;52.588;13.396;2023-05-11T03:35:21;101022.06;;;10.22;83.91
57192;BME280;43052;52.588;13.396;2023-05-11T03:37:50;101017.72;;;10.24;84.21
57192;BME280;43052;52.588;13.396;2023-05-11T03:40:18;101025.56;;;10.27;83.97
57192;BME280;43052;52.588;13.396;2023-05-11T03:42:44;101026.44;;;10.32;83.77
57192;BME280;43052;52.588;13.396;2023-05-11T03:45:12;101036.06;;;10.43;83.87
57192;BME280;43052;52.588;13.396;2023-05-11T03:47:39;101033.44;;;10.54;82.93
57192;BME280;43052;52.588;13.396;2023-05-11T03:50:07;101036.03;;;10.61;82.47
57192;BME280;43052;52.588;13.396;2023-05-11T03:52:34;101022.06;;;10.69;81.73
57192;BME280;43052;52.588;13.396;2023-05-11T03:54:59;101024.66;;;10.79;81.01
57192;BME280;43052;52.588;13.396;2023-05-11T03:57:25;101024.63;;;10.86;80.54
57192;BME280;43052;52.588;13.396;2023-05-11T03:59:50;101021.13;;;10.96;79.99
57192;BME280;43052;52.588;13.396;2023-05-11T04:02:16;101025.44;;;11.08;79.69
57192;BME280;43052;52.588;13.396;2023-05-11T04:04:41;101024.53;;;11.18;78.99
57192;BME280;43052;52.588;13.396;2023-05-11T04:07:06;101024.34;;;11.63;78.53
57192;BME280;43052;52.588;13.396;2023-05-11T04:09:31;101030.81;;;12.38;77.23
57192;BME280;43052;52.588;13.396;2023-05-11T04:11:57;101022.34;;;12.99;75.30
57192;BME280;43052;52.588;13.396;2023-05-11T04:14:22;101027.03;;;13.48;72.63
57192;BME280;43052;52.588;13.396;2023-05-11T04:16:47;101017.47;;;14.04;71.35
57192;BME280;43052;52.588;13.396;2023-05-11T04:19:12;101024.63;;;14.47;69.15
57192;BME280;43052;52.588;13.396;2023-05-11T04:21:38;101021.28;;;14.89;68.31
57192;BME280;43052;52.588;13.396;2023-05-11T04:24:03;101023.13;;;15.28;65.95
57192;BME280;43052;52.588;13.396;2023-05-11T04:26:28;101022.28;;;15.68;64.53
57192;BME280;43052;52.588;13.396;2023-05-11T04:28:54;101029.22;;;16.11;64.19
57192;BME280;43052;52.588;13.396;2023-05-11T04:31:19;101029.75;;;16.60;62.53
57192;BME280;43052;52.588;13.396;2023-05-11T04:33:44;101027.22;;;16.89;58.95
57192;BME280;43052;52.588;13.396;2023-05-11T04:36:10;101018.47;;;17.18;57.68
57192;BME280;43052;52.588;13.396;2023-05-11T04:38:35;101028.44;;;17.40;57.29
57192;BME280;43052;52.588;13.396;2023-05-11T04:41:05;101017.25;;;17.89;57.21
57192;BME280;43052;52.588;13.396;2023-05-11T04:43:31;101028.94;;;18.37;55.12
57192;BME280;43052;52.588;13.396;2023-05-11T04:45:56;101026.63;;;18.78;53.95
57192;BME280;43052;52.588;13.396;2023-05-11T04:48:23;101020.53;;;19.01;52.18
57192;BME280;43052;52.588;13.396;2023-05-11T04:50:48;101021.81;;;19.15;50.56
57192;BME280;43052;52.588;13.396;2023-05-11T04:53:13;101030.56;;;19.40;50.17
57192;BME280;43052;52.588;13.396;2023-05-11T04:55:39;101025.84;;;19.71;48.35
57192;BME280;43052;52.588;13.396;2023-05-11T04:58:04;101036.38;;;19.96;46.76
57192;BME280;43052;52.588;13.396;2023-05-11T05:00:29;101035.81;;;19.88;46.42
57192;BME280;43052;52.588;13.396;2023-05-11T05:02:54;101036.84;;;19.84;45.35
57192;BME280;43052;52.588;13.396;2023-05-11T05:05:20;101043.59;;;19.93;45.93
57192;BME280;43052;52.588;13.396;2023-05-11T05:07:45;101037.03;;;20.24;44.78
57192;BME280;43052;52.588;13.396;2023-05-11T05:10:10;101034.88;;;20.54;43.03
57192;BME280;43052;52.588;13.396;2023-05-11T05:12:37;101031.94;;;20.60;43.02
57192;BME280;43052;52.588;13.396;2023-05-11T05:15:03;101043.91;;;20.71;42.58
57192;BME280;43052;52.588;13.396;2023-05-11T05:17:29;101043.63;;;20.97;42.60
57192;BME280;43052;52.588;13.396;2023-05-11T05:19:55;101039.16;;;21.38;41.88
57192;BME280;43052;52.588;13.396;2023-05-11T05:22:20;101035.38;;;21.99;40.73
57192;BME280;43052;52.588;13.396;2023-05-11T05:24:46;101036.94;;;22.40;39.99
57192;BME280;43052;52.588;13.396;2023-05-11T05:27:12;101042.03;;;22.62;39.33
57192;BME280;43052;52.588;13.396;2023-05-11T05:29:38;101042.47;;;22.88;37.91
57192;BME280;43052;52.588;13.396;2023-05-11T05:32:03;101040.97;;;23.00;37.65
57192;BME280;43052;52.588;13.396;2023-05-11T05:34:28;101047.34;;;23.47;37.12
57192;BME280;43052;52.588;13.396;2023-05-11T05:36:54;101033.75;;;23.36;36.20
57192;BME280;43052;52.588;13.396;2023-05-11T05:39:19;101029.78;;;23.59;36.04
57192;BME280;43052;52.588;13.396;2023-05-11T05:41:47;101044.69;;;24.41;35.50
57192;BME280;43052;52.588;13.396;2023-05-11T05:44:17;101046.44;;;25.02;34.00
57192;BME280;43052;52.588;13.396;2023-05-11T05:46:42;101046.09;;;25.64;32.32
57192;BME280;43052;52.588;13.396;2023-05-11T05:49:07;101041.63;;;25.65;32.88
57192;BME280;43052;52.588;13.396;2023-05-11T05:55:07;101034.88;;;25.72;30.99
57192;BME280;43052;52.588;13.396;2023-05-11T05:57:33;101038.56;;;25.28;31.32
57192;BME280;43052;52.588;13.396;2023-05-11T06:00:04;101058.19;;;25.43;31.97
57192;BME280;43052;52.588;13.396;2023-05-11T06:02:29;101063.19;;;26.04;31.79
57192;BME280;43052;52.588;13.396;2023-05-11T06:04:55;101043.53;;;26.84;29.64
57192;BME280;43052;52.588;13.396;2023-05-11T06:07:20;101046.13;;;27.61;29.23
57192;BME280;43052;52.588;13.396;2023-05-11T06:09:45;101057.16;;;28.42;28.17
57192;BME280;43052;52.588;13.396;2023-05-11T06:12:11;101061.53;;;28.32;26.67
57192;BME280;43052;52.588;13.396;2023-05-11T06:14:36;101049.63;;;28.23;27.67
57192;BME280;43052;52.588;13.396;2023-05-11T06:17:01;101053.91;;;28.61;26.80
57192;BME280;43052;52.588;13.396;2023-05-11T06:19:27;101051.81;;;28.18;26.11
57192;BME280;43052;52.588;13.396;2023-05-11T06:21:52;101049.34;;;27.66;27.05
57192;BME280;43052;52.588;13.396;2023-05-11T06:24:17;101054.75;;;27.78;27.64
57192;BME280;43052;52.588;13.396;2023-05-11T06:26:43;101061.66;;;28.89;26.89
57192;BME280;43052;52.588;13.396;2023-05-11T06:29:08;101071.00;;;29.30;24.82
57192;BME280;43052;52.588;13.396;2023-05-11T06:31:33;101069.75;;;29.23;25.25
57192;BME280;43052;52.588;13.396;2023-05-11T06:33:58;101050.94;;;29.34;25.32
57192;BME280;43052;52.588;13.396;2023-05-11T06:36:24;101062.22;;;29.95;24.80
57192;BME280;43052;52.588;13.396;2023-05-11T06:38:49;101055.69;;;30.93;24.32
57192;BME280;43052;52.588;13.396;2023-05-11T06:41:14;101064.16;;;31.82;22.65
57192;BME280;43052;52.588;13.396;2023-05-11T06:43:40;101058.09;;;31.59;22.40
57192;BME280;43052;52.588;13.396;2023-05-11T06:46:05;101041.16;;;31.66;22.58
57192;BME280;43052;52.588;13.396;2023-05-11T06:48:30;101062.31;;;32.31;21.49
57192;BME280;43052;52.588;13.396;2023-05-11T06:50:56;101067.44;;;32.44;22.48
57192;BME280;43052;52.588;13.396;2023-05-11T06:53:21;101068.22;;;32.74;21.19
57192;BME280;43052;52.588;13.396;2023-05-11T06:55:46;101060.03;;;33.41;20.45
57192;BME280;43052;52.588;13.396;2023-05-11T06:58:12;101069.84;;;33.70;20.27
57192;BME280;43052;52.588;13.396;2023-05-11T07:00:38;101064.91;;;33.00;19.54
57192;BME280;43052;52.588;13.396;2023-05-11T07:03:03;101064.56;;;32.46;20.83
57192;BME280;43052;52.588;13.396;2023-05-11T07:05:29;101064.28;;;32.49;20.29
57192;BME280;43052;52.588;13.396;2023-05-11T07:07:54;101070.84;;;32.46;20.55
57192;BME280;43052;52.588;13.396;2023-05-11T07:10:19;101065.31;;;32.28;20.82
57192;BME280;43052;52.588;13.396;2023-05-11T07:12:45;101068.97;;;32.17;20.42
57192;BME280;43052;52.588;13.396;2023-05-11T07:15:10;101072.56;;;31.98;20.71
57192;BME280;43052;52.588;13.396;2023-05-11T07:17:36;101067.25;;;31.87;20.85
57192;BME280;43052;52.588;13.396;2023-05-11T07:20:01;101062.59;;;32.09;20.47
57192;BME280;43052;52.588;13.396;2023-05-11T07:22:26;101066.22;;;33.24;20.26
57192;BME280;43052;52.588;13.396;2023-05-11T07:24:52;101078.47;;;33.56;18.63
57192;BME280;43052;52.588;13.396;2023-05-11T07:27:17;101065.22;;;32.77;19.78
57192;BME280;43052;52.588;13.396;2023-05-11T07:29:42;101066.22;;;33.24;19.17
57192;BME280;43052;52.588;13.396;2023-05-11T07:32:08;101080.59;;;32.96;19.70
57192;BME280;43052;52.588;13.396;2023-05-11T07:34:33;101068.38;;;32.83;19.97
57192;BME280;43052;52.588;13.396;2023-05-11T07:36:59;101070.88;;;33.32;19.61
57192;BME280;43052;52.588;13.396;2023-05-11T07:39:24;101065.78;;;33.74;18.84
57192;BME280;43052;52.588;13.396;2023-05-11T07:41:49;101074.91;;;34.19;19.15
57192;BME280;43052;52.588;13.396;2023-05-11T07:44:15;101057.59;;;35.60;17.84
57192;BME280;43052;52.588;13.396;2023-05-11T07:46:40;101081.63;;;37.37;15.97
57192;BME280;43052;52.588;13.396;2023-05-11T07:49:06;101071.28;;;36.60;16.00
57192;BME280;43052;52.588;13.396;2023-05-11T07:51:33;101070.94;;;34.76;17.72
57192;BME280;43052;52.588;13.396;2023-05-11T07:53:58;101066.50;;;34.93;17.28
57192;BME280;43052;52.588;13.396;2023-05-11T07:56:24;101063.34;;;34.88;17.48
57192;BME280;43052;52.588;13.396;2023-05-11T07:58:49;101059.19;;;34.94;17.79
57192;BME280;43052;52.588;13.396;2023-05-11T08:01:14;101059.13;;;36.87;17.29
57192;BME280;43052;52.588;13.396;2023-05-11T08:03:39;101062.13;;;38.27;15.42
57192;BME280;43052;52.588;13.396;2023-05-11T08:06:05;101065.44;;;37.99;14.99
57192;BME280;43052;52.588;13.396;2023-05-11T08:08:30;101072.09;;;35.86;16.35
57192;BME280;43052;52.588;13.396;2023-05-11T08:10:56;101064.69;;;35.10;17.56
57192;BME280;43052;52.588;13.396;2023-05-11T08:13:21;101077.00;;;35.31;17.10
57192;BME280;43052;52.588;13.396;2023-05-11T08:15:46;101049.50;;;35.94;16.67
57192;BME280;43052;52.588;13.396;2023-05-11T08:18:12;101072.59;;;36.97;15.60
57192;BME280;43052;52.588;13.396;2023-05-11T08:20:37;101054.63;;;36.46;15.80
57192;BME280;43052;52.588;13.396;2023-05-11T08:23:03;101066.88;;;36.01;15.90
57192;BME280;43052;52.588;13.396;2023-05-11T08:25:29;101066.97;;;35.74;16.23
57192;BME280;43052;52.588;13.396;2023-05-11T08:27:54;101049.97;;;35.21;16.90
57192;BME280;43052;52.588;13.396;2023-05-11T08:30:19;101058.84;;;36.65;15.93
57192;BME280;43052;52.588;13.396;2023-05-11T08:32:45;101046.44;;;36.71;15.52
57192;BME280;43052;52.588;13.396;2023-05-11T08:35:11;101058.72;;;36.50;15.68
57192;BME280;43052;52.588;13.396;2023-05-11T08:37:37;101056.88;;;37.47;15.10
57192;BME280;43052;52.588;13.396;2023-05-11T08:40:02;101060.25;;;37.81;14.80
57192;BME280;43052;52.588;13.396;2023-05-11T08:42:32;101048.19;;;38.21;15.29
57192;BME280;43052;52.588;13.396;2023-05-11T08:44:58;101052.75;;;38.97;13.75
57192;BME280;43052;52.588;13.396;2023-05-11T08:47:23;101053.00;;;39.32;13.79
57192;BME280;43052;52.588;13.396;2023-05-11T08:49:50;101052.63;;;39.21;13.50
57192;BME280;43052;52.588;13.396;2023-05-11T08:52:17;101047.91;;;39.14;13.97
57192;BME280;43052;52.588;13.396;2023-05-11T08:54:42;101041.91;;;38.89;13.66
57192;BME280;43052;52.588;13.396;2023-05-11T08:57:09;101056.19;;;39.36;13.71
57192;BME280;43052;52.588;13.396;2023-05-11T08:59:35;101053.00;;;39.32;13.60
57192;BME280;43052;52.588;13.396;2023-05-11T09:02:01;101048.81;;;37.85;14.20
57192;BME280;43052;52.588;13.396;2023-05-11T09:04:28;101044.84;;;36.77;15.01
57192;BME280;43052;52.588;13.396;2023-05-11T09:06:54;101051.41;;;35.42;15.92
57192;BME280;43052;52.588;13.396;2023-05-11T09:09:21;101069.75;;;34.34;17.30
57192;BME280;43052;52.588;13.396;2023-05-11T09:11:47;101040.31;;;33.67;17.68
57192;BME280;43052;52.588;13.396;2023-05-11T09:14:13;101039.16;;;34.68;16.95
57192;BME280;43052;52.588;13.396;2023-05-11T09:16:38;101040.41;;;35.09;16.52
57192;BME280;43052;52.588;13.396;2023-05-11T09:19:03;101055.03;;;35.59;16.28
57192;BME280;43052;52.588;13.396;2023-05-11T09:21:29;101047.94;;;35.23;15.67
57192;BME280;43052;52.588;13.396;2023-05-11T09:23:56;101049.56;;;34.29;16.89
57192;BME280;43052;52.588;13.396;2023-05-11T09:26:23;101050.38;;;34.29;16.65
57192;BME280;43052;52.588;13.396;2023-05-11T09:28:50;101036.41;;;34.16;17.02
57192;BME280;43052;52.588;13.396;2023-05-11T09:31:47;101046.41;;;33.97;16.46
57192;BME280;43052;52.588;13.396;2023-05-11T09:34:21;101047.69;;;34.29;17.02
57192;BME280;43052;52.588;13.396;2023-05-11T09:36:48;101035.59;;;34.68;15.92
57192;BME280;43052;52.588;13.396;2023-05-11T09:39:14;101036.59;;;34.22;16.46
57192;BME280;43052;52.588;13.396;2023-05-11T09:41:39;101041.31;;;34.65;16.07
57192;BME280;43052;52.588;13.396;2023-05-11T09:44:10;101044.22;;;35.84;14.60
57192;BME280;43052;52.588;13.396;2023-05-11T09:46:37;101041.22;;;37.01;13.15
57192;BME280;43052;52.588;13.396;2023-05-11T09:49:03;101052.44;;;37.77;12.44
57192;BME280;43052;52.588;13.396;2023-05-11T09:51:30;101050.38;;;38.03;12.85
57192;BME280;43052;52.588;13.396;2023-05-11T09:53:57;101049.56;;;38.40;12.76
57192;BME280;43052;52.588;13.396;2023-05-11T09:56:22;101043.47;;;38.38;12.50
57192;BME280;43052;52.588;13.396;2023-05-11T09:58:52;101043.94;;;38.57;12.53
57192;BME280;43052;52.588;13.396;2023-05-11T10:01:30;101036.78;;;38.41;12.77
57192;BME280;43052;52.588;13.396;2023-05-11T10:03:57;101030.09;;;38.44;12.96
57192;BME280;43052;52.588;13.396;2023-05-11T10:06:22;101037.84;;;38.55;13.01
57192;BME280;43052;52.588;13.396;2023-05-11T10:08:47;101037.97;;;36.41;14.06
57192;BME280;43052;52.588;13.396;2023-05-11T10:11:13;101044.16;;;35.16;15.24
57192;BME280;43052;52.588;13.396;2023-05-11T10:13:39;101028.63;;;34.65;15.87
57192;BME280;43052;52.588;13.396;2023-05-11T10:16:05;101035.41;;;35.30;15.26
57192;BME280;43052;52.588;13.396;2023-05-11T10:18:35;101037.81;;;32.43;17.46
57192;BME280;43052;52.588;13.396;2023-05-11T10:21:00;101026.56;;;31.18;18.50
57192;BME280;43052;52.588;13.396;2023-05-11T10:23:27;101038.16;;;30.78;18.78
57192;BME280;43052;52.588;13.396;2023-05-11T10:25:53;101044.81;;;29.10;20.49
57192;BME280;43052;52.588;13.396;2023-05-11T10:28:19;101016.66;;;28.91;21.19
57192;BME280;43052;52.588;13.396;2023-05-11T10:30:47;101036.50;;;29.13;20.24
57192;BME280;43052;52.588;13.396;2023-05-11T10:33:13;101041.59;;;29.50;19.96
57192;BME280;43052;52.588;13.396;2023-05-11T10:35:38;101046.19;;;28.21;20.74
57192;BME280;43052;52.588;13.396;2023-05-11T10:38:05;101026.47;;;26.72;22.54
57192;BME280;43052;52.588;13.396;2023-05-11T10:40:37;101030.28;;;26.02;24.05
57192;BME280;43052;52.588;13.396;2023-05-11T10:43:31;101037.50;;;25.45;25.19
57192;BME280;43052;52.588;13.396;2023-05-11T10:51:45;101030.94;;;24.93;25.30
57192;BME280;43052;52.588;13.396;2023-05-11T10:54:34;101032.94;;;25.32;24.78
57192;BME280;43052;52.588;13.396;2023-05-11T10:57:07;101037.88;;;25.68;25.07
57192;BME280;43052;52.588;13.396;2023-05-11T10:59:57;101038.00;;;25.08;25.56
57192;BME280;43052;52.588;13.396;2023-05-11T11:02:34;101034.25;;;24.67;25.84
57192;BME280;43052;52.588;13.396;2023-05-11T11:05:00;101036.22;;;24.64;25.79
57192;BME280;43052;52.588;13.396;2023-05-11T11:07:30;101022.09;;;24.62;26.01
57192;BME280;43052;52.588;13.396;2023-05-11T11:09:57;101023.78;;;24.93;25.96
57192;BME280;43052;52.588;13.396;2023-05-11T11:12:25;101023.97;;;25.05;25.76
57192;BME280;43052;52.588;13.396;2023-05-11T11:15:05;101018.25;;;24.96;25.94
57192;BME280;43052;52.588;13.396;2023-05-11T11:17:35;101029.13;;;25.08;26.42
57192;BME280;43052;52.588;13.396;2023-05-11T11:20:02;101022.88;;;25.22;26.28
57192;BME280;43052;52.588;13.396;2023-05-11T11:25:07;101032.72;;;25.35;25.46
57192;BME280;43052;52.588;13.396;2023-05-11T11:32:49;101036.94;;;25.11;24.60
57192;BME280;43052;52.588;13.396;2023-05-11T11:38:11;101030.84;;;24.80;27.72
57192;BME280;43052;52.588;13.396;2023-05-11T11:40:45;101035.25;;;24.50;28.16
57192;BME280;43052;52.588;13.396;2023-05-11T11:43:12;101037.88;;;24.36;28.71
57192;BME280;43052;52.588;13.396;2023-05-11T11:45:41;101059.16;;;23.91;29.20
57192;BME280;43052;52.588;13.396;2023-05-11T11:48:15;101036.84;;;23.28;29.91
57192;BME280;43052;52.588;13.396;2023-05-11T11:50:45;101038.53;;;22.95;30.54
57192;BME280;43052;52.588;13.396;2023-05-11T11:58:57;101034.66;;;23.19;29.73
57192;BME280;43052;52.588;13.396;2023-05-11T12:01:26;101049.44;;;23.58;29.48
57192;BME280;43052;52.588;13.396;2023-05-11T12:04:12;101048.03;;;23.51;28.89
57192;BME280;43052;52.588;13.396;2023-05-11T12:06:42;101041.66;;;23.37;29.65
57192;BME280;43052;52.588;13.396;2023-05-11T12:09:16;101049.16;;;23.46;29.48
57192;BME280;43052;52.588;13.396;2023-05-11T12:11:44;101050.53;;;23.54;29.56
57192;BME280;43052;52.588;13.396;2023-05-11T12:14:10;101047.78;;;23.39;28.92
57192;BME280;43052;52.588;13.396;2023-05-11T12:16:36;101053.72;;;23.44;28.92
57192;BME280;43052;52.588;13.396;2023-05-11T12:19:01;101046.31;;;23.66;28.64
57192;BME280;43052;52.588;13.396;2023-05-11T12:21:29;101058.63;;;23.84;27.64
57192;BME280;43052;52.588;13.396;2023-05-11T12:24:02;101057.72;;;24.01;26.80
57192;BME280;43052;52.588;13.396;2023-05-11T12:26:29;101052.06;;;24.22;26.73
57192;BME280;43052;52.588;13.396;2023-05-11T12:29:21;101049.59;;;24.64;26.24
57192;BME280;43052;52.588;13.396;2023-05-11T12:31:46;101062.81;;;24.81;25.96
57192;BME280;43052;52.588;13.396;2023-05-11T12:34:15;101046.16;;;24.62;25.72
57192;BME280;43052;52.588;13.396;2023-05-11T12:36:42;101047.63;;;24.37;26.67
57192;BME280;43052;52.588;13.396;2023-05-11T12:39:15;101041.78;;;24.30;27.55
57192;BME280;43052;52.588;13.396;2023-05-11T12:41:42;101046.28;;;24.30;27.94
57192;BME280;43052;52.588;13.396;2023-05-11T12:44:07;101045.25;;;24.16;27.95
57192;BME280;43052;52.588;13.396;2023-05-11T12:46:33;101048.56;;;24.05;27.76
57192;BME280;43052;52.588;13.396;2023-05-11T12:48:58;101069.59;;;23.96;27.80
57192;BME280;43052;52.588;13.396;2023-05-11T12:54:26;101049.25;;;23.61;28.12
57192;BME280;43052;52.588;13.396;2023-05-11T12:56:52;101045.13;;;23.71;27.99
57192;BME280;43052;52.588;13.396;2023-05-11T12:59:38;101064.81;;;23.85;26.29
57192;BME280;43052;52.588;13.396;2023-05-11T13:02:20;101049.09;;;23.80;26.61
57192;BME280;43052;52.588;13.396;2023-05-11T13:04:46;101039.19;;;23.66;26.78
57192;BME280;43052;52.588;13.396;2023-05-11T13:07:12;101041.25;;;23.61;26.96
57192;BME280;43052;52.588;13.396;2023-05-11T13:09:39;101032.63;;;23.56;26.64
57192;BME280;43052;52.588;13.396;2023-05-11T13:12:15;101040.34;;;23.28;26.35
57192;BME280;43052;52.588;13.396;2023-05-11T13:14:47;101037.59;;;22.96;26.71
57192;BME280;43052;52.588;13.396;2023-05-11T13:17:27;101037.06;;;22.90;27.60
57192;BME280;43052;52.588;13.396;2023-05-11T13:19:54;101039.66;;;22.91;27.31
57192;BME280;43052;52.588;13.396;2023-05-11T13:22:19;101032.22;;;22.80;27.67